createdAt,value
2019-05-30T00:00:40.005Z,6.17
2019-05-30T00:05:42.620Z,5.13
2019-05-30T00:10:45.460Z,5.13
2019-05-30T00:15:47.933Z,10.33
2019-05-30T00:20:50.378Z,6.40
2019-05-30T00:25:52.770Z,9.70
2019-05-30T00:30:56.294Z,6.93
2019-05-30T00:35:59.842Z,11.03
2019-05-30T00:41:04.091Z,7.53
2019-05-30T00:46:07.279Z,7.87
2019-05-30T00:51:09.695Z,10.73
2019-05-30T00:56:12.100Z,9.23
2019-05-30T01:01:14.708Z,5.10
2019-05-30T01:06:17.128Z,7.03
2019-05-30T01:11:19.941Z,9.33
2019-05-30T01:16:22.400Z,11.50
2019-05-30T01:21:24.912Z,7.60
2019-05-30T01:26:27.624Z,6.17
2019-05-30T01:31:29.957Z,7.00
2019-05-30T01:36:32.384Z,7.47
2019-05-30T01:41:35.706Z,7.63
2019-05-30T01:46:38.103Z,13.97
2019-05-30T01:51:40.519Z,7.53
2019-05-30T01:56:43.250Z,6.97
2019-05-30T02:01:45.727Z,10.97
2019-05-30T02:06:48.209Z,6.77
2019-05-30T02:11:54.592Z,6.97
2019-05-30T02:16:57.256Z,10.73
2019-05-30T02:21:59.812Z,9.43
2019-05-30T02:27:02.294Z,10.63
2019-05-30T02:32:05.466Z,4.80
2019-05-30T02:37:10.813Z,7.07
2019-05-30T02:42:13.669Z,5.87
2019-05-30T02:47:16.388Z,8.53
2019-05-30T02:52:18.809Z,5.63
2019-05-30T02:57:21.387Z,8.70
2019-05-30T03:02:23.822Z,5.77
2019-05-30T03:07:26.237Z,6.03
2019-05-30T03:12:29.756Z,6.83
2019-05-30T03:17:32.263Z,6.27
2019-05-30T03:22:34.741Z,5.73
2019-05-30T03:27:37.527Z,6.00
2019-05-30T03:33:04.263Z,12.63
2019-05-30T03:37:44.167Z,7.63
2019-05-30T03:42:46.961Z,9.50
2019-05-30T03:47:53.222Z,5.97
2019-05-30T03:52:55.761Z,5.00
2019-05-30T03:58:08.115Z,5.47
2019-05-30T04:03:34.904Z,5.73
2019-05-30T04:08:39.920Z,10.50
2019-05-30T04:13:55.090Z,6.83
2019-05-30T04:18:57.628Z,7.13
2019-05-30T04:24:01.833Z,8.60
2019-05-30T04:29:04.220Z,10.60
2019-05-30T04:34:08.292Z,8.93
2019-05-30T04:39:11.329Z,11.50
2019-05-30T04:44:16.352Z,12.13
2019-05-30T04:49:21.529Z,10.10
2019-05-30T04:54:24.216Z,12.93
2019-05-30T04:59:26.705Z,11.47
2019-05-30T05:04:29.111Z,9.33
2019-05-30T05:09:31.501Z,12.63
2019-05-30T05:14:34.099Z,12.00
2019-05-30T05:19:36.591Z,12.67
2019-05-30T05:24:39.132Z,9.57
2019-05-30T05:29:42.262Z,10.50
2019-05-30T05:34:44.698Z,10.53
2019-05-30T05:39:47.523Z,11.53
2019-05-30T05:44:50.175Z,8.13
2019-05-30T05:49:53.309Z,10.47
2019-05-30T05:54:57.563Z,9.70
2019-05-30T06:00:00.014Z,7.07
2019-05-30T06:05:04.046Z,8.80
2019-05-30T06:10:07.407Z,9.33
2019-05-30T06:15:10.309Z,6.27
2019-05-30T06:20:15.444Z,7.00
2019-05-30T06:25:33.945Z,8.47
2019-05-30T06:30:37.386Z,4.27
2019-05-30T06:35:39.940Z,6.40
2019-05-30T06:40:42.516Z,5.50
2019-05-30T06:45:45.333Z,6.33
2019-05-30T06:50:48.765Z,5.90
2019-05-30T06:55:51.224Z,3.93
2019-05-30T07:00:53.707Z,2.70
2019-05-30T07:05:56.715Z,2.67
2019-05-30T07:10:59.788Z,2.77
2019-05-30T07:16:02.432Z,3.47
2019-05-30T07:21:04.970Z,2.50
2019-05-30T07:26:07.524Z,5.67
2019-05-30T07:31:36.803Z,3.67
2019-05-30T07:36:39.899Z,4.27
2019-05-30T07:41:42.400Z,2.67
2019-05-30T07:46:44.986Z,3.33
2019-05-30T07:51:47.862Z,2.30
2019-05-30T07:56:50.489Z,3.53
2019-05-30T08:01:53.058Z,2.17
2019-05-30T08:06:55.479Z,4.87
2019-05-30T08:11:58.483Z,2.20
2019-05-30T08:17:01.221Z,2.37
2019-05-30T08:22:03.920Z,2.33
2019-05-30T08:27:06.475Z,1.70
2019-05-30T08:32:09.025Z,2.53
2019-05-30T08:37:12.078Z,2.07
2019-05-30T08:42:14.738Z,2.37
2019-05-30T08:47:27.374Z,2.97
2019-05-30T08:52:34.495Z,3.00
2019-05-30T08:57:37.058Z,4.83
2019-05-30T09:02:40.984Z,1.97
2019-05-30T09:07:44.727Z,2.00
2019-05-30T09:12:49.594Z,2.70
2019-05-30T09:18:08.938Z,2.20
2019-05-30T09:23:12.165Z,1.80
2019-05-30T09:28:15.442Z,2.30
2019-05-30T09:33:18.091Z,2.07
2019-05-30T09:38:20.542Z,2.83
2019-05-30T09:43:23.253Z,2.17
2019-05-30T09:48:25.820Z,2.33
2019-05-30T09:53:28.336Z,1.93
2019-05-30T09:58:31.249Z,2.50
2019-05-30T10:03:33.830Z,2.10
2019-05-30T10:08:36.345Z,2.90
2019-05-30T10:13:38.831Z,1.90
2019-05-30T10:18:42.288Z,6.17
2019-05-30T10:23:45.806Z,1.40
2019-05-30T10:28:49.578Z,1.90
2019-05-30T10:33:53.039Z,3.60
2019-05-30T10:38:56.104Z,1.40
2019-05-30T10:43:58.713Z,2.10
2019-05-30T10:49:02.702Z,1.30
2019-05-30T10:54:05.242Z,3.87
2019-05-30T10:59:08.081Z,2.50
2019-05-30T11:04:10.583Z,1.30
2019-05-30T11:09:16.532Z,1.57
2019-05-30T11:14:18.923Z,2.10
2019-05-30T11:19:21.622Z,1.22
2019-05-30T11:24:24.119Z,1.17
2019-05-30T11:29:26.612Z,1.43
2019-05-30T11:34:29.119Z,1.40
2019-05-30T11:39:31.589Z,1.37
2019-05-30T11:44:34.061Z,3.50
2019-05-30T11:49:36.526Z,5.20
2019-05-30T11:54:39.257Z,3.53
2019-05-30T11:59:41.687Z,2.47
2019-05-30T12:04:44.287Z,1.30
2019-05-30T12:09:46.796Z,1.20
2019-05-30T12:14:49.217Z,2.05
2019-05-30T12:19:53.477Z,1.55
2019-05-30T12:24:56.193Z,1.85
2019-05-30T12:29:58.665Z,1.20
2019-05-30T12:35:02.547Z,1.42
2019-05-30T12:40:05.584Z,1.42
2019-05-30T12:45:10.344Z,1.47
2019-05-30T12:50:16.557Z,1.57
2019-05-30T12:55:17.911Z,3.00
2019-05-30T13:00:22.247Z,2.43
2019-05-30T13:05:24.664Z,3.60
2019-05-30T13:10:27.342Z,2.85
2019-05-30T13:15:29.768Z,1.20
2019-05-30T13:20:33.288Z,3.22
2019-05-30T13:25:35.754Z,1.63
2019-05-30T13:30:38.140Z,2.10
2019-05-30T13:35:40.588Z,1.27
2019-05-30T13:41:01.528Z,2.42
2019-05-30T13:46:04.525Z,1.10
2019-05-30T13:51:07.113Z,1.55
2019-05-30T13:56:09.887Z,1.55
2019-05-30T14:01:14.133Z,1.10
2019-05-30T14:06:16.794Z,1.07
2019-05-30T14:11:19.567Z,1.00
2019-05-30T14:16:21.912Z,1.30
2019-05-30T14:21:24.864Z,0.88
2019-05-30T14:26:28.155Z,0.88
2019-05-30T14:31:30.626Z,1.95
2019-05-30T14:36:33.118Z,1.35
2019-05-30T14:41:35.628Z,1.85
2019-05-30T14:46:38.163Z,2.50
2019-05-30T14:51:40.660Z,1.02
2019-05-30T14:56:45.921Z,1.32
2019-05-30T15:01:48.368Z,2.80
2019-05-30T15:06:50.903Z,1.67
2019-05-30T15:11:53.379Z,1.15
2019-05-30T15:16:56.151Z,1.15
2019-05-30T15:21:58.642Z,1.20
2019-05-30T15:27:01.138Z,1.65
2019-05-30T15:32:03.573Z,1.10
2019-05-30T15:37:06.656Z,1.20
2019-05-30T15:42:12.186Z,1.50
2019-05-30T15:47:35.154Z,1.10
2019-05-30T15:52:39.552Z,1.35
2019-05-30T15:57:43.041Z,1.30
2019-05-30T16:02:45.468Z,1.42
2019-05-30T16:07:47.810Z,1.20
2019-05-30T16:12:50.512Z,1.32
2019-05-30T16:17:52.986Z,1.22
2019-05-30T16:22:55.483Z,1.60
2019-05-30T16:27:58.745Z,1.40
2019-05-30T16:33:01.051Z,1.32
2019-05-30T16:38:03.759Z,2.62
2019-05-30T16:43:06.166Z,1.40
2019-05-30T16:48:08.899Z,1.10
2019-05-30T16:53:12.391Z,1.42
2019-05-30T16:58:17.865Z,1.80
2019-05-30T17:03:20.231Z,1.75
2019-05-30T17:08:22.703Z,4.08
2019-05-30T17:13:25.854Z,1.57
2019-05-30T17:18:28.887Z,4.47
2019-05-30T17:23:44.250Z,1.35
2019-05-30T17:28:46.864Z,1.40
2019-05-30T17:33:49.496Z,1.57
2019-05-30T17:38:51.923Z,1.47
2019-05-30T17:43:55.591Z,1.55
2019-05-30T17:48:59.022Z,2.15
2019-05-30T17:54:01.601Z,2.12
2019-05-30T17:59:07.848Z,4.12
2019-05-30T18:04:13.442Z,1.50
2019-05-30T18:09:45.129Z,2.05
2019-05-30T18:14:47.581Z,3.05
2019-05-30T18:19:50.969Z,1.90
2019-05-30T18:24:53.946Z,2.40
2019-05-30T18:30:00.237Z,3.03
2019-05-30T18:35:03.714Z,2.07
2019-05-30T18:40:12.575Z,2.40
2019-05-30T18:45:20.647Z,2.33
2019-05-30T18:50:23.542Z,2.30
2019-05-30T18:55:26.575Z,2.40
2019-05-30T19:00:29.767Z,8.00
2019-05-30T19:05:32.699Z,2.73
2019-05-30T19:16:45.291Z,3.60
2019-05-30T19:21:47.731Z,2.50
2019-05-30T19:26:50.587Z,2.70
2019-05-30T19:31:53.073Z,3.23
2019-05-30T19:36:57.741Z,2.70
2019-05-30T19:42:02.260Z,3.97
2019-05-30T19:47:06.069Z,4.47
2019-05-30T19:52:08.550Z,4.13
2019-05-30T19:57:10.975Z,2.63
2019-05-30T20:02:13.379Z,4.70
2019-05-30T20:07:15.771Z,2.77
2019-05-30T20:12:18.068Z,3.00
2019-05-30T20:17:20.719Z,3.30
2019-05-30T20:22:23.377Z,2.83
2019-05-30T20:27:26.404Z,3.33
2019-05-30T20:32:28.863Z,3.00
2019-05-30T20:37:31.355Z,2.80
2019-05-30T20:42:34.678Z,2.77
2019-05-30T20:47:40.227Z,2.80
2019-05-30T20:52:45.296Z,3.73
2019-05-30T20:57:47.325Z,2.97
2019-05-30T21:02:49.889Z,2.70
2019-05-30T21:07:53.512Z,2.53
2019-05-30T21:12:58.132Z,3.53
2019-05-30T21:18:02.256Z,4.33
2019-05-30T21:23:04.793Z,2.53
2019-05-30T21:28:07.478Z,3.43
2019-05-30T21:33:10.100Z,3.83
2019-05-30T21:38:12.495Z,3.77
2019-05-30T21:43:15.011Z,4.23
2019-05-30T21:48:17.482Z,3.03
2019-05-30T21:53:20.714Z,5.30
2019-05-30T21:58:23.125Z,4.87
2019-05-30T22:03:25.519Z,5.80
2019-05-30T22:08:28.345Z,3.33
2019-05-30T22:14:07.948Z,5.70
2019-05-30T22:19:10.570Z,5.73
2019-05-30T22:30:00.200Z,5.27
2019-05-30T22:35:02.650Z,3.57
2019-05-30T22:40:05.304Z,3.20
2019-05-30T22:45:07.777Z,7.07
2019-05-30T22:50:10.827Z,3.10
2019-05-30T22:55:13.324Z,4.57
2019-05-30T23:01:01.097Z,4.13
2019-05-30T23:06:03.653Z,3.23
2019-05-30T23:11:06.112Z,5.03
2019-05-30T23:16:09.194Z,3.67
2019-05-30T23:21:12.354Z,5.57
2019-05-30T23:26:14.796Z,3.23
2019-05-30T23:31:17.216Z,8.03
2019-05-30T23:36:20.334Z,3.60
2019-05-30T23:41:23.348Z,3.33
2019-05-30T23:46:25.760Z,4.83
2019-05-30T23:51:28.056Z,3.83
2019-05-30T23:56:31.448Z,4.37
